Terminal Aerodrome Forecast
Issued by NWS Newport/Morehead City, NC

Home | Current Version | Previous Version | Graphics & Text | Print | Product List | Glossary On
Versions: 1 2 3 4 5 6 7 8 9 10 11 12 13 14 15 16 17 18 19 20 21
868
FTUS42 KMHX 280542
TAFEWN
TAF
KEWN 280542Z 2806/2906 04006KT P6SM SCT020
     FM280900 VRB03KT 3SM BR BKN005
     FM281400 04006KT P6SM VCSH BKN035
     FM282000 08006KT P6SM BKN050=

USA.gov is the U.S. government's official web portal to all federal, state and local government web resources and services.